createdAt,value
2023-01-13T00:01:16.438Z,94326.81
2023-01-13T00:04:19.510Z,94333.06
2023-01-13T00:07:23.517Z,94344.97
2023-01-13T00:10:26.650Z,94362.84
2023-01-13T00:13:29.830Z,94350.28
2023-01-13T00:16:32.939Z,94354.84
2023-01-13T00:19:36.052Z,94360.50
2023-01-13T00:22:39.196Z,94358.72
2023-01-13T00:25:42.460Z,94355.41
2023-01-13T00:28:45.780Z,94360.28
2023-01-13T00:31:50.187Z,94365.53
2023-01-13T00:34:53.813Z,94368.28
2023-01-13T00:37:56.879Z,94369.56
2023-01-13T00:41:02.135Z,94370.84
2023-01-13T00:44:05.543Z,94357.75
2023-01-13T00:47:09.153Z,94350.28
2023-01-13T00:50:12.327Z,94351.84
2023-01-13T00:53:15.676Z,94347.41
2023-01-13T00:56:38.404Z,94343.00
2023-01-13T00:59:42.735Z,94353.66
2023-01-13T01:02:55.831Z,94362.81
2023-01-13T01:06:05.437Z,94351.59
2023-01-13T01:09:08.657Z,94356.75
2023-01-13T01:12:11.823Z,94367.94
2023-01-13T01:15:15.662Z,94376.81
2023-01-13T01:18:23.889Z,94379.59
2023-01-13T01:21:31.438Z,94380.41
2023-01-13T01:24:38.105Z,94383.63
2023-01-13T01:27:43.582Z,94378.38
2023-01-13T01:30:52.487Z,94360.41
2023-01-13T01:34:02.216Z,94355.81
2023-01-13T01:37:07.051Z,94363.97
2023-01-13T01:40:12.652Z,94358.34
2023-01-13T01:43:37.678Z,94369.41
2023-01-13T01:46:43.182Z,94372.69
2023-01-13T01:49:47.206Z,94380.19
2023-01-13T01:53:03.166Z,94372.84
2023-01-13T01:56:08.461Z,94372.72
2023-01-13T01:59:12.586Z,94372.13
2023-01-13T02:02:16.191Z,94377.25
2023-01-13T02:05:19.429Z,94373.38
2023-01-13T02:08:22.801Z,94361.03
2023-01-13T02:11:49.386Z,94369.88
2023-01-13T02:14:52.560Z,94378.19
2023-01-13T02:18:29.293Z,94378.28
2023-01-13T02:21:52.096Z,94383.66
2023-01-13T02:25:16.971Z,94385.00
2023-01-13T02:29:06.184Z,94391.41
2023-01-13T02:32:44.996Z,94386.50
2023-01-13T02:36:03.115Z,94379.53
2023-01-13T02:39:42.261Z,94380.16
2023-01-13T02:43:12.027Z,94388.47
2023-01-13T02:46:42.283Z,94383.75
2023-01-13T02:49:52.295Z,94380.66
2023-01-13T02:53:29.986Z,94378.44
2023-01-13T02:56:38.978Z,94388.38
2023-01-13T02:59:43.576Z,94386.69
2023-01-13T03:02:49.188Z,94381.09
2023-01-13T03:06:00.216Z,94382.72
2023-01-13T03:09:16.047Z,94378.53
2023-01-13T03:12:24.949Z,94384.59
2023-01-13T03:16:00.228Z,94379.19
2023-01-13T03:19:31.322Z,94385.06
2023-01-13T03:22:49.491Z,94382.41
2023-01-13T03:26:03.498Z,94377.84
2023-01-13T03:29:12.533Z,94381.50
2023-01-13T03:32:22.934Z,94386.81
2023-01-13T03:35:35.149Z,94386.91
2023-01-13T03:38:48.865Z,94381.38
2023-01-13T03:42:12.400Z,94377.34
2023-01-13T03:45:19.028Z,94372.25
2023-01-13T03:48:26.969Z,94377.34
2023-01-13T03:51:32.829Z,94373.53
2023-01-13T03:54:45.193Z,94370.25
2023-01-13T03:58:11.106Z,94361.44
2023-01-13T04:01:30.021Z,94360.31
2023-01-13T04:04:50.637Z,94355.56
2023-01-13T04:07:57.195Z,94363.06
2023-01-13T04:11:08.055Z,94360.47
2023-01-13T04:14:13.556Z,94354.47
2023-01-13T04:17:17.343Z,94347.69
2023-01-13T04:20:20.767Z,94354.63
2023-01-13T04:23:24.765Z,94354.63
2023-01-13T04:26:28.071Z,94352.59
2023-01-13T04:29:31.549Z,94354.28
2023-01-13T04:32:34.856Z,94352.09
2023-01-13T04:35:38.805Z,94340.50
2023-01-13T04:38:42.026Z,94345.38
2023-01-13T04:42:00.524Z,94342.69
2023-01-13T04:45:05.034Z,94334.94
2023-01-13T04:48:08.455Z,94331.53
2023-01-13T04:51:11.905Z,94345.25
2023-01-13T04:54:15.250Z,94338.91
2023-01-13T04:57:18.376Z,94329.16
2023-01-13T05:00:23.479Z,94329.91
2023-01-13T05:03:27.492Z,94322.66
2023-01-13T05:06:30.351Z,94314.69
2023-01-13T05:09:33.489Z,94312.50
2023-01-13T05:13:08.786Z,94309.59
2023-01-13T05:16:31.454Z,94316.28
2023-01-13T05:19:36.481Z,94305.31
2023-01-13T05:22:58.140Z,94306.66
2023-01-13T05:26:01.469Z,94302.63
2023-01-13T05:29:04.639Z,94297.13
2023-01-13T05:32:09.033Z,94292.16
2023-01-13T05:35:12.318Z,94291.66
2023-01-13T05:38:15.918Z,94293.81
2023-01-13T05:41:38.535Z,94287.63
2023-01-13T05:44:46.379Z,94290.66
2023-01-13T05:47:53.871Z,94285.69
2023-01-13T05:50:58.108Z,94293.47
2023-01-13T05:54:01.980Z,94288.41
2023-01-13T05:57:05.758Z,94283.38
2023-01-13T06:00:10.491Z,94289.09
2023-01-13T06:03:18.432Z,94278.41
2023-01-13T06:06:21.685Z,94288.66
2023-01-13T06:09:24.862Z,94287.09
2023-01-13T06:12:27.956Z,94286.00
2023-01-13T06:15:31.110Z,94284.41
2023-01-13T06:18:34.404Z,94289.25
2023-01-13T06:21:37.869Z,94289.69
2023-01-13T06:24:41.212Z,94287.38
2023-01-13T06:27:44.658Z,94279.66
2023-01-13T06:30:55.967Z,94272.16
2023-01-13T06:34:03.398Z,94275.34
2023-01-13T06:37:07.278Z,94279.47
2023-01-13T06:40:12.517Z,94280.59
2023-01-13T06:43:16.671Z,94271.28
2023-01-13T06:46:20.477Z,94275.84
2023-01-13T06:49:23.566Z,94268.97
2023-01-13T06:52:27.968Z,94283.34
2023-01-13T06:55:31.347Z,94285.38
2023-01-13T06:58:34.781Z,94281.72
2023-01-13T07:01:38.745Z,94288.78
2023-01-13T07:04:42.061Z,94283.97
2023-01-13T07:07:45.460Z,94279.84
2023-01-13T07:10:48.577Z,94278.69
2023-01-13T07:14:09.945Z,94294.25
2023-01-13T07:17:13.171Z,94277.56
2023-01-13T07:20:17.399Z,94284.63
2023-01-13T07:23:20.534Z,94285.50
2023-01-13T07:26:23.625Z,94283.25
2023-01-13T07:29:26.796Z,94291.94
2023-01-13T07:32:32.156Z,94269.19
2023-01-13T07:35:35.295Z,94281.44
2023-01-13T07:38:40.451Z,94287.09
2023-01-13T07:42:02.005Z,94278.53
2023-01-13T07:45:05.491Z,94275.19
2023-01-13T07:48:12.071Z,94278.06
2023-01-13T07:51:15.838Z,94279.38
2023-01-13T07:54:19.445Z,94282.72
2023-01-13T07:57:22.586Z,94278.81
2023-01-13T08:00:26.072Z,94274.69
2023-01-13T08:03:29.267Z,94279.94
2023-01-13T08:06:32.493Z,94279.16
2023-01-13T08:09:35.644Z,94277.94
2023-01-13T08:12:57.302Z,94279.22
2023-01-13T08:16:03.301Z,94274.09
2023-01-13T08:19:06.610Z,94280.84
2023-01-13T08:22:09.788Z,94285.06
2023-01-13T08:25:13.119Z,94280.81
2023-01-13T08:28:17.299Z,94280.94
2023-01-13T08:31:20.685Z,94278.56
2023-01-13T08:34:24.680Z,94284.22
2023-01-13T08:37:28.465Z,94285.75
2023-01-13T08:40:33.219Z,94280.00
2023-01-13T08:43:39.630Z,94289.94
2023-01-13T08:46:43.690Z,94288.06
2023-01-13T08:49:46.842Z,94286.59
2023-01-13T08:52:51.824Z,94286.22
2023-01-13T08:55:55.390Z,94279.75
2023-01-13T08:59:02.533Z,94272.38
2023-01-13T09:02:17.771Z,94275.44
2023-01-13T09:05:21.940Z,94268.63
2023-01-13T09:08:25.564Z,94279.22
2023-01-13T09:11:54.515Z,94281.50
2023-01-13T09:14:58.353Z,94273.47
2023-01-13T09:18:03.486Z,94283.75
2023-01-13T09:21:07.377Z,94279.34
2023-01-13T09:24:11.357Z,94279.94
2023-01-13T09:27:18.200Z,94281.78
2023-01-13T09:30:22.074Z,94275.81
2023-01-13T09:33:44.829Z,94282.38
2023-01-13T09:36:48.128Z,94277.81
2023-01-13T09:39:51.602Z,94281.69
2023-01-13T09:43:26.164Z,94276.63
2023-01-13T09:46:45.450Z,94272.69
2023-01-13T09:49:49.170Z,94272.69
2023-01-13T09:52:53.429Z,94274.28
2023-01-13T09:55:56.760Z,94277.19
2023-01-13T09:58:59.928Z,94272.47
2023-01-13T10:02:18.481Z,94280.66
2023-01-13T10:05:28.516Z,94274.44
2023-01-13T10:08:35.198Z,94281.94
2023-01-13T10:12:00.077Z,94284.44
2023-01-13T10:15:03.253Z,94274.63
2023-01-13T10:18:26.675Z,94279.63
2023-01-13T10:22:01.486Z,94282.94
2023-01-13T10:25:04.689Z,94284.09
2023-01-13T10:28:14.098Z,94272.47
2023-01-13T10:31:18.327Z,94277.47
2023-01-13T10:34:22.046Z,94280.66
2023-01-13T10:37:28.306Z,94277.47
2023-01-13T10:40:31.558Z,94282.66
2023-01-13T10:43:34.720Z,94281.44
2023-01-13T10:46:54.245Z,94273.13
2023-01-13T10:50:09.556Z,94282.69
2023-01-13T10:53:51.751Z,94278.81
2023-01-13T10:57:19.719Z,94282.00
2023-01-13T11:00:31.927Z,94289.50
2023-01-13T11:03:42.352Z,94288.25
2023-01-13T11:06:48.112Z,94282.28
2023-01-13T11:10:10.270Z,94287.97
2023-01-13T11:13:24.739Z,94287.13
2023-01-13T11:16:28.899Z,94291.22
2023-01-13T11:19:35.992Z,94287.63
2023-01-13T11:22:50.603Z,94290.13
2023-01-13T11:26:00.203Z,94289.84
2023-01-13T11:29:31.713Z,94283.94
2023-01-13T11:32:42.085Z,94283.66
2023-01-13T11:36:24.183Z,94285.19
2023-01-13T11:39:45.393Z,94280.91
2023-01-13T11:43:11.216Z,94283.41
2023-01-13T11:46:15.925Z,94276.31
2023-01-13T11:49:30.845Z,94274.69
2023-01-13T11:53:05.614Z,94285.47
2023-01-13T11:56:32.725Z,94273.75
2023-01-13T11:59:35.960Z,94274.84
2023-01-13T12:03:02.387Z,94268.25
2023-01-13T12:06:36.566Z,94267.72
2023-01-13T12:09:53.681Z,94264.44
2023-01-13T12:13:21.597Z,94261.84
2023-01-13T12:16:24.722Z,94260.63
2023-01-13T12:19:30.621Z,94249.41
2023-01-13T12:22:36.867Z,94257.78
2023-01-13T12:25:50.989Z,94247.78
2023-01-13T12:28:58.802Z,94253.72
2023-01-13T12:32:06.498Z,94249.84
2023-01-13T12:35:21.448Z,94257.88
2023-01-13T12:38:50.954Z,94255.19
2023-01-13T12:42:52.942Z,94251.06
2023-01-13T12:46:25.342Z,94241.91
2023-01-13T12:49:34.035Z,94237.50
2023-01-13T12:52:46.848Z,94238.78
2023-01-13T12:55:53.870Z,94235.34
2023-01-13T12:59:19.748Z,94226.31
2023-01-13T13:02:32.495Z,94229.19
2023-01-13T13:06:08.896Z,94215.72
2023-01-13T13:09:27.023Z,94223.50
2023-01-13T13:13:20.899Z,94216.25
2023-01-13T13:16:27.648Z,94216.13
2023-01-13T13:19:33.999Z,94211.31
2023-01-13T13:22:45.797Z,94220.53
2023-01-13T13:26:14.419Z,94216.91
2023-01-13T13:29:35.555Z,94208.31
2023-01-13T13:32:47.757Z,94207.22
2023-01-13T13:36:21.868Z,94211.31
2023-01-13T13:39:48.686Z,94198.41
2023-01-13T13:43:17.246Z,94198.66
2023-01-13T13:46:49.313Z,94207.13
2023-01-13T13:49:55.210Z,94192.31
2023-01-13T13:53:09.216Z,94190.47
2023-01-13T13:56:22.568Z,94189.13
2023-01-13T13:59:31.359Z,94192.31
2023-01-13T14:02:38.447Z,94201.16
2023-01-13T14:05:57.830Z,94190.03
2023-01-13T14:09:03.206Z,94197.53
2023-01-13T14:12:14.953Z,94175.47
2023-01-13T14:15:35.737Z,94179.56
2023-01-13T14:18:46.352Z,94176.09
2023-01-13T14:21:49.675Z,94180.13
2023-01-13T14:24:59.254Z,94176.06
2023-01-13T14:28:34.837Z,94191.94
2023-01-13T14:31:40.349Z,94187.09
2023-01-13T14:34:44.065Z,94184.34
2023-01-13T14:37:49.582Z,94174.34
2023-01-13T14:40:52.802Z,94174.94
2023-01-13T14:44:00.091Z,94172.03
2023-01-13T14:47:18.011Z,94173.66
2023-01-13T14:50:30.154Z,94166.44
2023-01-13T14:53:47.545Z,94164.88
2023-01-13T14:56:56.200Z,94164.47
2023-01-13T15:00:14.406Z,94158.59
2023-01-13T15:03:19.912Z,94155.00
2023-01-13T15:06:25.087Z,94154.81
2023-01-13T15:09:42.563Z,94155.78
2023-01-13T15:12:46.240Z,94159.38
2023-01-13T15:15:51.401Z,94153.78
2023-01-13T15:18:56.309Z,94150.84
2023-01-13T15:22:01.889Z,94150.59
2023-01-13T15:25:05.736Z,94152.50
2023-01-13T15:28:20.870Z,94145.41
2023-01-13T15:31:25.838Z,94140.00
2023-01-13T15:34:28.964Z,94139.59
2023-01-13T15:37:32.094Z,94135.50
2023-01-13T15:40:35.532Z,94133.47
2023-01-13T15:43:57.150Z,94133.47
2023-01-13T15:47:07.206Z,94125.44
2023-01-13T15:50:16.029Z,94135.28
2023-01-13T15:53:19.220Z,94129.59
2023-01-13T15:56:29.679Z,94119.78
2023-01-13T15:59:34.682Z,94120.88
2023-01-13T16:02:42.693Z,94118.81
2023-01-13T16:05:46.347Z,94116.25
2023-01-13T16:08:49.506Z,94116.06
2023-01-13T16:11:52.613Z,94112.84
2023-01-13T16:14:56.000Z,94097.47
2023-01-13T16:18:01.688Z,94101.31
2023-01-13T16:21:05.032Z,94095.22
2023-01-13T16:24:08.701Z,94095.22
2023-01-13T16:27:14.913Z,94092.72
2023-01-13T16:30:30.788Z,94093.84
2023-01-13T16:33:37.328Z,94082.03
2023-01-13T16:36:40.434Z,94077.47
2023-01-13T16:39:43.720Z,94078.16
2023-01-13T16:42:46.848Z,94075.66
2023-01-13T16:45:50.290Z,94061.81
2023-01-13T16:48:59.145Z,94065.69
2023-01-13T16:52:02.813Z,94063.34
2023-01-13T16:55:07.225Z,94061.69
2023-01-13T16:58:18.752Z,94060.78
2023-01-13T17:01:30.916Z,94062.59
2023-01-13T17:04:34.217Z,94065.09
2023-01-13T17:07:37.443Z,94067.75
2023-01-13T17:10:40.599Z,94061.63
2023-01-13T17:13:43.836Z,94069.81
2023-01-13T17:16:47.516Z,94068.00
2023-01-13T17:19:51.132Z,94066.81
2023-01-13T17:22:58.293Z,94067.22
2023-01-13T17:26:02.040Z,94051.06
2023-01-13T17:29:07.913Z,94059.66
2023-01-13T17:32:16.357Z,94049.94
2023-01-13T17:35:25.376Z,94043.97
2023-01-13T17:38:28.657Z,94034.69
2023-01-13T17:41:31.782Z,94035.78
2023-01-13T17:44:35.180Z,94032.53
2023-01-13T17:47:39.051Z,94037.28
2023-01-13T17:50:48.371Z,94027.50
2023-01-13T17:53:51.629Z,94031.94
2023-01-13T17:56:57.034Z,94029.03
2023-01-13T18:00:00.194Z,94020.84
2023-01-13T18:03:03.304Z,94019.72
2023-01-13T18:06:08.733Z,94017.66
2023-01-13T18:09:12.917Z,94015.97
2023-01-13T18:12:16.069Z,94014.84
2023-01-13T18:15:19.151Z,94013.00
2023-01-13T18:18:22.302Z,94005.97
2023-01-13T18:21:46.319Z,94002.06
2023-01-13T18:25:07.938Z,94000.19
2023-01-13T18:28:10.983Z,93993.53
2023-01-13T18:31:14.062Z,93995.13
2023-01-13T18:34:17.288Z,93988.16
2023-01-13T18:37:20.403Z,93983.25
2023-01-13T18:40:23.501Z,93980.31
2023-01-13T18:43:26.733Z,93979.53
2023-01-13T18:46:29.854Z,93981.50
2023-01-13T18:49:33.172Z,93970.75
2023-01-13T18:52:37.486Z,93968.00
2023-01-13T18:55:40.534Z,93966.38
2023-01-13T18:58:51.677Z,93974.53
2023-01-13T19:01:55.088Z,93965.69
2023-01-13T19:04:58.308Z,93961.81
2023-01-13T19:08:01.728Z,93960.97
2023-01-13T19:11:08.420Z,93953.47
2023-01-13T19:14:11.576Z,93958.53
2023-01-13T19:17:16.818Z,93944.28
2023-01-13T19:20:20.808Z,93938.06
2023-01-13T19:23:23.910Z,93938.25
2023-01-13T19:26:27.071Z,93938.25
2023-01-13T19:29:33.812Z,93930.66
2023-01-13T19:32:37.074Z,93919.56
2023-01-13T19:35:40.139Z,93922.16
2023-01-13T19:38:43.261Z,93918.72
2023-01-13T19:42:04.876Z,93913.31
2023-01-13T19:45:28.220Z,93914.94
2023-01-13T19:48:31.709Z,93896.72
2023-01-13T19:51:34.862Z,93895.94
2023-01-13T19:54:38.160Z,93889.75
2023-01-13T19:57:41.639Z,93887.53
2023-01-13T20:00:47.920Z,93890.03
2023-01-13T20:03:51.161Z,93880.72
2023-01-13T20:06:54.308Z,93884.16
2023-01-13T20:09:57.872Z,93880.22
2023-01-13T20:13:00.689Z,93874.22
2023-01-13T20:16:06.100Z,93861.38
2023-01-13T20:19:09.234Z,93862.69
2023-01-13T20:22:12.857Z,93859.50
2023-01-13T20:25:18.124Z,93850.63
2023-01-13T20:28:21.307Z,93850.38
2023-01-13T20:31:24.582Z,93845.91
2023-01-13T20:34:28.045Z,93839.13
2023-01-13T20:37:31.351Z,93826.91
2023-01-13T20:40:34.478Z,93831.72
2023-01-13T20:43:37.484Z,93824.50
2023-01-13T20:46:42.124Z,93816.09
2023-01-13T20:49:45.360Z,93820.88
2023-01-13T20:52:49.086Z,93820.28
2023-01-13T20:55:52.347Z,93811.19
2023-01-13T20:58:55.459Z,93807.31
2023-01-13T21:01:58.879Z,93803.19
2023-01-13T21:05:01.997Z,93800.88
2023-01-13T21:08:05.309Z,93801.06
2023-01-13T21:11:11.153Z,93803.97
2023-01-13T21:14:35.921Z,93794.88
2023-01-13T21:17:57.452Z,93796.91
2023-01-13T21:21:14.291Z,93794.78
2023-01-13T21:24:17.378Z,93797.78
2023-01-13T21:27:20.859Z,93800.97
2023-01-13T21:30:23.877Z,93796.41
2023-01-13T21:33:26.945Z,93799.06
2023-01-13T21:36:30.131Z,93798.41
2023-01-13T21:39:33.385Z,93798.53
2023-01-13T21:42:54.961Z,93795.97
2023-01-13T21:46:16.564Z,93788.00
2023-01-13T21:49:19.752Z,93785.84
2023-01-13T21:52:26.087Z,93786.19
2023-01-13T21:55:29.407Z,93784.53
2023-01-13T21:58:32.556Z,93790.63
2023-01-13T22:01:35.734Z,93776.84
2023-01-13T22:04:42.141Z,93767.28
2023-01-13T22:07:46.576Z,93759.81
2023-01-13T22:10:59.102Z,93756.72
2023-01-13T22:14:09.566Z,93754.66
2023-01-13T22:17:15.773Z,93755.34
2023-01-13T22:20:19.928Z,93749.44
2023-01-13T22:23:23.062Z,93736.03
2023-01-13T22:26:27.047Z,93744.47
2023-01-13T22:29:30.334Z,93738.78
2023-01-13T22:32:37.613Z,93735.50
2023-01-13T22:35:40.767Z,93731.91
2023-01-13T22:38:43.869Z,93730.34
2023-01-13T22:41:47.234Z,93724.25
2023-01-13T22:44:50.139Z,93733.13
2023-01-13T22:47:53.295Z,93726.75
2023-01-13T22:50:56.804Z,93723.56
2023-01-13T22:54:00.226Z,93717.13
2023-01-13T22:57:03.352Z,93720.06
2023-01-13T23:00:06.913Z,93728.38
2023-01-13T23:03:10.332Z,93729.34
2023-01-13T23:06:13.571Z,93743.78
2023-01-13T23:09:17.134Z,93735.19
2023-01-13T23:12:19.926Z,93738.09
2023-01-13T23:15:23.153Z,93735.94
2023-01-13T23:18:26.978Z,93733.34
2023-01-13T23:21:32.823Z,93733.75
2023-01-13T23:24:35.874Z,93731.19
2023-01-13T23:27:39.309Z,93725.47
2023-01-13T23:30:42.185Z,93725.44
2023-01-13T23:33:45.686Z,93721.44
2023-01-13T23:36:48.789Z,93730.75
2023-01-13T23:39:51.924Z,93729.47
2023-01-13T23:42:55.148Z,93740.63
2023-01-13T23:46:07.289Z,93742.81
2023-01-13T23:49:10.658Z,93741.91
2023-01-13T23:52:13.934Z,93736.97
2023-01-13T23:55:17.210Z,93727.38
2023-01-13T23:58:20.270Z,93742.50
